Time;durP1;ratioP1;P1;durP2;ratioP2;P2;SDS_P1;SDS_P2;PMS_P1;PMS_P2;Temp;Humidity;BMP_temperature;BMP_pressure;BME280_temperature;BME280_humidity;BME280_pressure;Samples;Min_cycle;Max_cycle;Signal;HPM_P1;HPM_P2
2021/05/27 00:00:23;;;;;;;6.07;4.97;;;;;;;18.09;100.00;101425.47;5068983;28;20468;-82
2021/05/27 00:02:49;;;;;;;5.20;3.70;;;;;;;18.06;100.00;101426.59;5072277;28;20179;-81
2021/05/27 00:05:16;;;;;;;4.80;3.57;;;;;;;18.02;100.00;101422.50;5071449;28;20399;-81
2021/05/27 00:07:41;;;;;;;10.80;5.20;;;;;;;17.95;100.00;101426.69;5071995;28;20611;-82
2021/05/27 00:10:10;;;;;;;6.10;4.77;;;;;;;17.96;100.00;101428.34;5071870;28;20458;-76
2021/05/27 00:12:37;;;;;;;4.93;4.40;;;;;;;17.91;100.00;101422.59;5070561;28;20160;-83
2021/05/27 00:15:05;;;;;;;8.10;5.10;;;;;;;17.86;100.00;101423.00;5062918;28;20466;-82
2021/05/27 00:17:30;;;;;;;6.73;5.13;;;;;;;17.85;100.00;101423.13;5060687;28;20933;-83
2021/05/27 00:19:56;;;;;;;6.70;5.03;;;;;;;17.91;100.00;101420.81;5052076;28;20410;-83
2021/05/27 00:22:21;;;;;;;5.60;4.23;;;;;;;17.88;100.00;101418.38;5070062;28;20167;-83
2021/05/27 00:24:47;;;;;;;5.30;4.73;;;;;;;17.81;100.00;101413.72;5053263;28;20168;-83
2021/05/27 00:27:12;;;;;;;9.33;4.80;;;;;;;17.73;100.00;101409.91;5053069;28;20181;-82
2021/05/27 00:29:39;;;;;;;7.73;4.40;;;;;;;17.75;100.00;101407.13;5052087;28;20655;-76
2021/05/27 00:32:05;;;;;;;5.53;4.50;;;;;;;17.79;100.00;101405.91;5070164;28;20278;-81
2021/05/27 00:34:30;;;;;;;9.00;4.67;;;;;;;17.66;100.00;101394.59;5070428;28;20503;-84
2021/05/27 00:36:56;;;;;;;7.20;4.80;;;;;;;17.56;100.00;101396.38;5070100;28;20195;-76
2021/05/27 00:39:21;;;;;;;8.37;5.27;;;;;;;17.45;100.00;101386.66;5062799;28;20632;-84
2021/05/27 00:41:47;;;;;;;5.50;4.00;;;;;;;17.41;100.00;101385.25;5055326;28;20173;-83
2021/05/27 00:44:19;;;;;;;6.90;4.67;;;;;;;17.41;100.00;101387.91;5066247;28;20541;-83
2021/05/27 00:46:45;;;;;;;7.23;5.10;;;;;;;17.39;100.00;101377.41;5067830;28;20173;-85
2021/05/27 00:49:10;;;;;;;6.87;5.17;;;;;;;17.34;100.00;101376.94;5053235;28;20821;-81
2021/05/27 00:51:36;;;;;;;7.27;5.07;;;;;;;17.25;100.00;101377.72;5066478;28;20172;-86
2021/05/27 00:54:02;;;;;;;9.00;5.00;;;;;;;17.27;100.00;101369.63;5059915;28;20163;-84
2021/05/27 00:56:28;;;;;;;5.47;4.67;;;;;;;17.29;100.00;101367.69;5071408;28;20160;-84
2021/05/27 00:58:54;;;;;;;5.77;4.57;;;;;;;17.27;100.00;101364.31;5070255;28;20403;-84
2021/05/27 01:01:19;;;;;;;6.43;5.23;;;;;;;17.27;100.00;101367.81;5065650;28;20157;-84
2021/05/27 01:03:45;;;;;;;6.90;5.70;;;;;;;17.19;100.00;101359.66;5070891;28;20626;-83
2021/05/27 01:06:10;;;;;;;8.60;5.07;;;;;;;17.22;100.00;101362.03;5070609;28;20639;-84
2021/05/27 01:08:36;;;;;;;7.10;5.30;;;;;;;17.14;100.00;101369.81;5071491;28;20677;-82
2021/05/27 01:11:02;;;;;;;6.13;5.00;;;;;;;17.11;100.00;101367.44;5070056;28;20545;-88
2021/05/27 01:13:27;;;;;;;8.63;5.60;;;;;;;16.99;100.00;101365.78;5062643;28;20458;-84
2021/05/27 01:15:54;;;;;;;9.93;4.87;;;;;;;16.93;100.00;101372.47;5060631;28;20510;-77
2021/05/27 01:18:21;;;;;;;6.93;5.00;;;;;;;16.94;100.00;101368.00;5068184;28;20168;-84
2021/05/27 01:20:52;;;;;;;7.93;5.63;;;;;;;16.91;100.00;101364.63;5070673;28;20421;-81
2021/05/27 01:23:19;;;;;;;8.67;5.60;;;;;;;16.93;100.00;101351.25;5066309;28;20402;-80
2021/05/27 01:25:48;;;;;;;6.13;5.50;;;;;;;16.91;100.00;101351.34;5070692;28;20415;-82
2021/05/27 01:28:14;;;;;;;7.80;5.73;;;;;;;16.82;100.00;101354.78;5067845;28;20403;-82
2021/05/27 01:30:41;;;;;;;8.73;5.60;;;;;;;16.82;100.00;101346.81;5063239;28;20477;-81
2021/05/27 01:33:10;;;;;;;6.50;4.90;;;;;;;16.88;100.00;101346.31;5059003;28;20415;-80
2021/05/27 01:35:36;;;;;;;10.73;6.10;;;;;;;16.82;100.00;101344.16;5070727;28;20398;-73
2021/05/27 01:38:14;;;;;;;10.57;5.77;;;;;;;16.83;100.00;101340.53;5070919;28;20423;-80
2021/05/27 01:40:41;;;;;;;7.27;4.80;;;;;;;16.75;100.00;101350.94;5068193;28;20445;-80
2021/05/27 01:43:07;;;;;;;12.17;5.47;;;;;;;16.79;100.00;101346.25;5071114;28;20422;-81
2021/05/27 01:45:33;;;;;;;6.70;4.90;;;;;;;16.79;100.00;101341.78;5071059;28;20417;-82
2021/05/27 01:47:59;;;;;;;7.17;5.60;;;;;;;16.84;100.00;101336.91;5068035;28;20497;-81
2021/05/27 01:50:25;;;;;;;6.37;5.40;;;;;;;16.81;100.00;101337.16;5071260;28;20449;-79
2021/05/27 01:52:54;;;;;;;6.63;4.40;;;;;;;16.86;100.00;101339.44;5055588;28;20257;-83
2021/05/27 01:55:20;;;;;;;6.40;4.80;;;;;;;16.81;100.00;101339.81;5049841;28;20406;-83
2021/05/27 01:57:45;;;;;;;8.93;4.97;;;;;;;16.77;100.00;101338.38;5051041;28;20399;-83
2021/05/27 02:00:12;;;;;;;5.30;4.57;;;;;;;16.80;100.00;101345.25;5054081;28;20188;-82
2021/05/27 02:02:37;;;;;;;8.47;4.20;;;;;;;16.79;100.00;101341.78;5054657;28;20165;-82
2021/05/27 02:05:03;;;;;;;7.93;4.63;;;;;;;16.77;100.00;101341.03;5054936;28;20388;-83
2021/05/27 02:07:29;;;;;;;7.90;5.10;;;;;;;16.77;100.00;101340.19;5054958;28;20168;-84
2021/05/27 02:09:54;;;;;;;7.13;5.40;;;;;;;16.77;100.00;101340.19;5064117;28;20446;-84
2021/05/27 02:12:21;;;;;;;5.50;4.13;;;;;;;16.78;100.00;101339.25;5074240;28;20185;-83
2021/05/27 02:14:46;;;;;;;7.03;4.23;;;;;;;16.82;100.00;101340.66;5061171;28;20166;-79
2021/05/27 02:17:12;;;;;;;6.07;3.77;;;;;;;16.95;100.00;101332.53;5053953;28;20404;-75
2021/05/27 02:19:37;;;;;;;16.27;6.83;;;;;;;17.01;100.00;101329.34;5074533;28;20618;-80
2021/05/27 02:22:03;;;;;;;7.00;4.30;;;;;;;17.02;100.00;101333.69;5067600;28;20169;-83
2021/05/27 02:24:28;;;;;;;6.87;3.80;;;;;;;16.89;100.00;101337.38;5055441;28;20614;-80
2021/05/27 02:26:54;;;;;;;6.60;4.60;;;;;;;16.84;100.00;101334.25;5054260;28;20588;-79
2021/05/27 02:29:19;;;;;;;7.23;3.90;;;;;;;16.87;100.00;101335.81;5066265;28;20191;-79
2021/05/27 02:31:45;;;;;;;8.20;3.87;;;;;;;16.89;100.00;101334.72;5071870;28;20171;-84
2021/05/27 02:34:10;;;;;;;6.60;3.67;;;;;;;16.89;100.00;101329.41;5074345;28;20157;-84
2021/05/27 02:36:36;;;;;;;6.17;3.60;;;;;;;16.90;100.00;101323.13;5073570;28;20188;-83
2021/05/27 02:39:03;;;;;;;6.80;3.53;;;;;;;16.96;100.00;101320.94;5073223;28;20168;-82
2021/05/27 02:41:28;;;;;;;4.63;3.33;;;;;;;16.97;100.00;101317.28;5073662;28;20212;-84
2021/05/27 02:43:54;;;;;;;5.57;3.30;;;;;;;16.97;100.00;101310.19;5066162;28;20457;-85
2021/05/27 02:46:20;;;;;;;5.73;3.20;;;;;;;17.00;100.00;101299.28;5063724;28;20168;-86
2021/05/27 02:48:45;;;;;;;4.90;3.57;;;;;;;16.96;100.00;101302.34;5073450;28;20263;-85
2021/05/27 02:51:11;;;;;;;5.37;2.87;;;;;;;16.94;100.00;101301.66;5069510;28;20992;-85
2021/05/27 02:53:36;;;;;;;4.83;2.93;;;;;;;16.98;100.00;101306.53;5073334;28;20160;-85
2021/05/27 02:56:02;;;;;;;16.27;4.00;;;;;;;17.01;100.00;101321.41;5073106;28;20161;-84
2021/05/27 02:58:28;;;;;;;4.90;3.30;;;;;;;17.04;100.00;101331.75;5073655;28;20156;-85
2021/05/27 03:00:54;;;;;;;8.33;3.53;;;;;;;16.89;100.00;101345.34;5069317;28;20168;-84
2021/05/27 03:03:22;;;;;;;7.17;3.83;;;;;;;16.94;100.00;101349.44;5065405;28;20410;-78
2021/05/27 03:05:50;;;;;;;14.33;4.87;;;;;;;16.87;100.00;101355.25;5071878;28;20161;-81
2021/05/27 03:08:17;;;;;;;8.00;4.10;;;;;;;16.92;100.00;101354.84;5071941;28;20413;-85
2021/05/27 03:10:43;;;;;;;10.33;4.40;;;;;;;16.91;100.00;101374.41;5072941;28;20466;-76
2021/05/27 03:13:09;;;;;;;12.73;3.83;;;;;;;16.99;100.00;101376.41;5072101;28;20501;-82
2021/05/27 03:15:36;;;;;;;6.30;3.80;;;;;;;17.01;100.00;101385.97;5072606;28;20402;-84
2021/05/27 03:18:06;;;;;;;8.10;4.70;;;;;;;16.98;100.00;101394.16;5073517;28;20477;-83
2021/05/27 03:20:33;;;;;;;8.53;4.20;;;;;;;17.04;100.00;101396.31;5054316;28;20408;-83
2021/05/27 03:22:59;;;;;;;6.17;4.50;;;;;;;17.02;100.00;101402.72;5064733;28;20900;-81
2021/05/27 03:25:25;;;;;;;7.33;4.40;;;;;;;17.01;100.00;101409.00;5073158;28;20401;-81
2021/05/27 03:27:50;;;;;;;7.37;4.40;;;;;;;17.13;100.00;101400.00;5071113;28;20414;-81
2021/05/27 03:30:16;;;;;;;8.33;4.80;;;;;;;17.19;100.00;101408.31;5070323;28;20188;-79
2021/05/27 03:32:42;;;;;;;12.50;4.97;;;;;;;17.28;100.00;101409.34;5070230;28;20199;-82
2021/05/27 03:35:09;;;;;;;10.43;6.33;;;;;;;17.38;100.00;101412.03;5062165;28;20841;-86
2021/05/27 03:37:34;;;;;;;10.60;4.40;;;;;;;17.49;100.00;101417.31;5052042;28;20243;-85
2021/05/27 03:40:13;;;;;;;5.60;4.67;;;;;;;17.58;100.00;101411.19;5052191;28;20455;-82
2021/05/27 03:42:40;;;;;;;9.80;5.00;;;;;;;17.69;100.00;101407.66;5071711;28;20179;-82
2021/05/27 03:45:09;;;;;;;6.77;4.90;;;;;;;17.79;100.00;101411.22;5072258;28;20407;-82
2021/05/27 03:47:34;;;;;;;9.43;4.90;;;;;;;17.85;100.00;101407.19;5063743;28;20925;-83
2021/05/27 03:50:00;;;;;;;9.30;5.00;;;;;;;17.96;100.00;101393.78;5066180;28;20476;-84
2021/05/27 03:52:26;;;;;;;6.20;4.70;;;;;;;17.97;100.00;101398.13;5072185;28;20251;-84
2021/05/27 03:54:51;;;;;;;9.80;4.77;;;;;;;18.09;100.00;101394.41;5067283;28;20622;-79
2021/05/27 03:57:17;;;;;;;7.87;6.00;;;;;;;18.20;100.00;101396.09;5071052;28;20172;-73
2021/05/27 04:02:26;;;;;;;12.20;6.13;;;;;;;18.37;100.00;101410.59;5072309;28;20156;-81
2021/05/27 04:07:37;;;;;;;6.20;5.43;;;;;;;18.44;100.00;101403.72;5054012;28;20175;-84
2021/05/27 04:10:02;;;;;;;7.80;4.80;;;;;;;18.51;100.00;101402.19;5056208;28;20823;-82
2021/05/27 04:12:46;;;;;;;17.53;7.00;;;;;;;18.60;100.00;101406.72;5060496;28;20407;-85
2021/05/27 04:15:21;;;;;;;11.77;5.63;;;;;;;18.60;100.00;101413.84;5059514;28;20581;-82
2021/05/27 04:17:56;;;;;;;8.77;6.27;;;;;;;18.68;100.00;101412.22;5071296;28;20986;-86
2021/05/27 04:20:24;;;;;;;11.37;6.13;;;;;;;18.81;100.00;101410.09;5071520;28;20402;-76
2021/05/27 04:22:50;;;;;;;10.67;6.53;;;;;;;18.81;100.00;101410.09;5070650;28;20407;-77
2021/05/27 04:25:18;;;;;;;9.40;7.27;;;;;;;18.92;100.00;101401.16;5071138;28;20887;-77
2021/05/27 04:27:45;;;;;;;9.30;6.23;;;;;;;18.91;100.00;101401.31;5071332;28;20402;-85
2021/05/27 04:30:13;;;;;;;11.43;7.60;;;;;;;18.90;100.00;101405.78;5071094;28;20488;-82
2021/05/27 04:33:09;;;;;;;10.10;6.90;;;;;;;19.05;100.00;101404.38;5071383;28;20496;-85
2021/05/27 04:35:40;;;;;;;8.97;6.87;;;;;;;19.20;100.00;101406.63;5051875;28;20392;-82
2021/05/27 04:38:06;;;;;;;11.87;6.50;;;;;;;19.33;100.00;101415.13;5051677;28;20395;-85
2021/05/27 04:40:33;;;;;;;16.13;7.10;;;;;;;19.37;100.00;101408.56;5051376;28;20491;-85
2021/05/27 04:42:59;;;;;;;10.30;7.40;;;;;;;19.10;100.00;101415.44;5051906;28;20419;-86
2021/05/27 04:45:24;;;;;;;10.10;7.07;;;;;;;19.08;100.00;101405.91;5058253;28;20396;-86
2021/05/27 04:47:51;;;;;;;13.43;7.97;;;;;;;19.31;100.00;101409.13;5067160;28;20547;-87
2021/05/27 04:50:16;;;;;;;10.40;7.70;;;;;;;19.28;100.00;101417.41;5071108;28;20603;-73
2021/05/27 04:52:42;;;;;;;10.83;6.83;;;;;;;19.36;100.00;101406.88;5065281;28;20986;-85
2021/05/27 04:55:12;;;;;;;13.30;8.47;;;;;;;19.56;100.00;101408.50;5062196;28;20258;-75
2021/05/27 04:57:38;;;;;;;9.50;8.23;;;;;;;19.89;100.00;101401.00;5070812;28;20172;-78
2021/05/27 05:00:07;;;;;;;12.57;8.10;;;;;;;20.09;100.00;101402.56;5071386;28;20403;-78
2021/05/27 05:02:32;;;;;;;10.60;9.43;;;;;;;20.19;100.00;101406.03;5057914;28;20396;-76
2021/05/27 05:04:58;;;;;;;7.80;7.00;;;;;;;20.51;100.00;101396.75;5069761;28;20423;-77
2021/05/27 05:07:23;;;;;;;8.00;6.10;;;;;;;20.49;100.00;101401.41;5071121;28;20175;-81
2021/05/27 05:09:50;;;;;;;13.70;6.87;;;;;;;20.34;100.00;101403.72;5070717;28;20191;-80
2021/05/27 05:12:16;;;;;;;8.30;6.33;;;;;;;20.36;100.00;101403.56;5050076;28;20193;-85
2021/05/27 05:14:42;;;;;;;10.57;6.63;;;;;;;20.49;100.00;101396.91;5054619;28;20491;-76
2021/05/27 05:17:07;;;;;;;8.80;6.70;;;;;;;20.68;100.00;101389.75;5069783;28;20168;-82
2021/05/27 05:19:33;;;;;;;7.50;6.17;;;;;;;20.69;100.00;101380.72;5071347;28;20405;-78
2021/05/27 05:21:58;;;;;;;9.73;6.63;;;;;;;20.72;100.00;101378.63;5071499;28;20176;-76
2021/05/27 05:24:25;;;;;;;15.33;6.93;;;;;;;20.80;100.00;101366.31;5070740;28;20649;-77
2021/05/27 05:26:51;;;;;;;11.20;7.07;;;;;;;20.70;100.00;101358.38;5069869;28;20308;-81
2021/05/27 05:29:17;;;;;;;9.00;6.00;;;;;;;20.69;100.00;101365.53;5071044;28;20462;-80
2021/05/27 05:31:43;;;;;;;12.03;6.77;;;;;;;20.91;100.00;101374.09;5070797;28;20391;-82
2021/05/27 05:34:08;;;;;;;7.50;6.10;;;;;;;20.84;100.00;101359.66;5071041;28;20458;-81
2021/05/27 05:36:35;;;;;;;11.67;7.00;;;;;;;20.84;100.00;101355.16;5074941;28;20619;-81
2021/05/27 05:39:00;;;;;;;9.97;6.37;;;;;;;20.85;100.00;101359.50;5074387;28;20302;-81
2021/05/27 05:41:26;;;;;;;9.10;6.27;;;;;;;20.80;100.00;101358.31;5074342;28;20454;-80
2021/05/27 05:43:51;;;;;;;7.70;6.20;;;;;;;20.68;100.00;101353.19;5074492;28;20168;-80
2021/05/27 05:46:17;;;;;;;7.67;6.80;;;;;;;20.63;100.00;101352.81;5074394;28;20630;-80
2021/05/27 05:48:42;;;;;;;11.27;5.70;;;;;;;20.55;100.00;101342.03;5074326;28;20156;-82
2021/05/27 05:51:08;;;;;;;11.40;6.03;;;;;;;20.44;100.00;101337.78;5074218;28;20635;-82
2021/05/27 05:53:34;;;;;;;13.03;6.00;;;;;;;20.64;100.00;101324.28;5073951;28;20191;-82
2021/05/27 05:56:00;;;;;;;20.70;6.70;;;;;;;20.76;100.00;101307.00;5073674;28;20153;-81
2021/05/27 05:58:26;;;;;;;10.57;5.77;;;;;;;20.64;100.00;101278.88;5073549;28;20432;-78
2021/05/27 06:00:52;;;;;;;10.80;5.63;;;;;;;20.67;100.00;101265.22;5073549;28;20175;-81
2021/05/27 06:03:18;;;;;;;12.20;5.43;;;;;;;20.86;100.00;101273.03;5073813;28;20148;-81
2021/05/27 06:05:44;;;;;;;60.20;10.60;;;;;;;20.84;100.00;101264.31;5073977;28;20395;-81
2021/05/27 06:08:10;;;;;;;11.10;5.80;;;;;;;20.79;100.00;101272.00;5074054;28;20196;-81
2021/05/27 06:10:36;;;;;;;17.00;6.37;;;;;;;20.84;100.00;101274.19;5073608;28;20607;-81
2021/05/27 06:13:02;;;;;;;14.73;5.90;;;;;;;20.75;100.00;101279.47;5073556;28;20160;-80
2021/05/27 06:15:29;;;;;;;65.10;11.20;;;;;;;20.90;100.00;101292.25;5073549;28;20184;-81
2021/05/27 06:17:56;;;;;;;7.23;5.30;;;;;;;21.02;100.00;101288.34;5072632;28;20417;-81
2021/05/27 06:20:22;;;;;;;21.30;7.50;;;;;;;21.13;100.00;101285.41;5073893;28;20970;-80
2021/05/27 06:22:48;;;;;;;10.03;5.80;;;;;;;21.10;100.00;101293.75;5073943;28;20430;-80
2021/05/27 06:25:15;;;;;;;7.87;5.90;;;;;;;20.95;100.00;101298.00;5073963;28;20407;-80
2021/05/27 06:27:41;;;;;;;7.80;5.30;;;;;;;20.88;100.00;101305.78;5073617;28;20479;-81
2021/05/27 06:30:08;;;;;;;10.70;5.73;;;;;;;20.83;100.00;101315.25;5073764;28;20533;-81
2021/05/27 06:32:36;;;;;;;9.40;6.80;;;;;;;20.74;100.00;101330.38;5074196;28;20437;-80
2021/05/27 06:35:08;;;;;;;8.93;5.97;;;;;;;20.74;100.00;101341.06;5073395;28;20410;-79
2021/05/27 06:37:38;;;;;;;10.90;5.50;;;;;;;20.93;100.00;101337.34;5071856;28;20406;-81
2021/05/27 06:40:09;;;;;;;7.60;5.97;;;;;;;20.89;100.00;101333.34;5073404;28;20454;-80
2021/05/27 06:42:35;;;;;;;11.97;6.10;;;;;;;20.96;100.00;101339.75;5073092;28;20438;-80
2021/05/27 06:45:01;;;;;;;9.83;5.90;;;;;;;21.04;100.00;101342.47;5072278;28;20414;-81
2021/05/27 06:47:27;;;;;;;9.40;7.13;;;;;;;21.19;100.00;101334.72;5073158;28;20149;-81
2021/05/27 06:49:52;;;;;;;9.53;6.70;;;;;;;21.28;100.00;101334.66;5072980;28;20438;-81
2021/05/27 06:52:18;;;;;;;14.10;6.60;;;;;;;21.53;100.00;101318.72;5072534;28;20164;-80
2021/05/27 06:54:44;;;;;;;12.13;6.67;;;;;;;21.54;100.00;101323.13;5072813;28;20155;-78
2021/05/27 06:57:09;;;;;;;8.77;6.40;;;;;;;21.60;100.00;101328.63;5073121;28;20191;-80
2021/05/27 06:59:35;;;;;;;7.10;5.00;;;;;;;21.69;100.00;101320.63;5074893;28;20263;-82
2021/05/27 07:02:04;;;;;;;11.30;5.87;;;;;;;21.73;100.00;101322.00;5072886;28;20646;-84
2021/05/27 07:04:33;;;;;;;7.50;5.70;;;;;;;21.69;100.00;101331.34;5070943;28;20216;-82
2021/05/27 07:06:58;;;;;;;7.50;5.30;;;;;;;21.83;100.00;101326.22;5072271;28;20418;-82
2021/05/27 07:09:23;;;;;;;7.17;5.50;;;;;;;21.95;100.00;101331.31;5072293;28;20477;-82
2021/05/27 07:11:49;;;;;;;10.50;5.13;;;;;;;22.01;100.00;101333.34;5072777;28;20626;-83
2021/05/27 07:14:15;;;;;;;6.80;4.93;;;;;;;22.02;100.00;101338.50;5072910;28;20196;-81
2021/05/27 07:16:41;;;;;;;9.30;5.33;;;;;;;22.06;100.00;101345.19;5073014;28;20160;-82
2021/05/27 07:19:08;;;;;;;6.73;5.50;;;;;;;22.13;100.00;101356.13;5072772;28;20635;-83
2021/05/27 07:21:33;;;;;;;6.67;5.00;;;;;;;22.24;100.00;101355.00;5072466;28;20421;-82
2021/05/27 07:23:59;;;;;;;10.47;6.00;;;;;;;22.18;100.00;101353.81;5072080;28;20964;-82
2021/05/27 07:26:26;;;;;;;7.57;5.30;;;;;;;22.14;100.00;101352.44;5072183;28;20192;-82
2021/05/27 07:28:53;;;;;;;6.67;4.90;;;;;;;22.34;100.00;101345.81;5072393;28;20242;-82
2021/05/27 07:31:19;;;;;;;5.37;4.60;;;;;;;22.41;100.00;101354.88;5072239;28;20402;-82
2021/05/27 07:33:44;;;;;;;8.90;5.37;;;;;;;22.31;100.00;101351.53;5071688;28;20399;-84
2021/05/27 07:36:10;;;;;;;7.30;5.10;;;;;;;22.53;100.00;101357.25;5072175;28;20202;-83
2021/05/27 07:38:36;;;;;;;7.97;4.83;;;;;;;22.58;100.00;101342.34;5072460;28;20225;-82
2021/05/27 07:41:01;;;;;;;6.20;4.67;;;;;;;22.74;100.00;101348.72;5071730;28;20588;-83
2021/05/27 07:43:27;;;;;;;6.20;4.10;;;;;;;22.84;100.00;101344.03;5072452;28;20165;-82
2021/05/27 07:45:53;;;;;;;11.00;4.53;;;;;;;22.86;100.00;101345.56;5072094;28;20169;-83
2021/05/27 07:48:21;;;;;;;9.80;4.60;;;;;;;22.96;100.00;101337.34;5072363;28;20167;-82
2021/05/27 07:50:47;;;;;;;13.43;7.43;;;;;;;23.18;100.00;101333.97;5072052;28;20288;-81
2021/05/27 07:53:17;;;;;;;6.70;4.10;;;;;;;23.19;100.00;101332.13;5071869;28;20770;-81
2021/05/27 07:55:42;;;;;;;14.63;4.93;;;;;;;23.07;100.00;101333.50;5071526;28;20198;-83
2021/05/27 07:58:08;;;;;;;10.33;4.40;;;;;;;23.19;100.00;101335.66;5072207;28;20383;-82
2021/05/27 08:00:34;;;;;;;7.27;4.27;;;;;;;23.26;100.00;101339.31;5069955;28;20171;-82
2021/05/27 08:03:00;;;;;;;6.50;3.97;;;;;;;23.10;100.00;101330.47;5071822;28;20176;-82
2021/05/27 08:05:29;;;;;;;12.63;4.50;;;;;;;23.17;100.00;101339.50;5071334;28;20179;-81
2021/05/27 08:07:55;;;;;;;9.00;4.47;;;;;;;23.24;100.00;101340.50;5071236;28;20182;-82
2021/05/27 08:10:20;;;;;;;5.40;4.07;;;;;;;23.30;100.00;101347.88;5070458;28;20457;-82
2021/05/27 08:12:46;;;;;;;9.23;4.30;;;;;;;23.45;100.00;101346.16;5071275;28;20149;-84
2021/05/27 08:15:12;;;;;;;5.80;3.90;;;;;;;23.50;100.00;101346.50;5071634;28;20589;-85
2021/05/27 08:17:38;;;;;;;5.77;3.70;;;;;;;23.36;100.00;101344.53;5071328;28;20391;-82
2021/05/27 08:20:06;;;;;;;8.00;3.90;;;;;;;23.31;100.00;101343.34;5071259;28;20168;-83
2021/05/27 08:22:32;;;;;;;10.23;4.67;;;;;;;23.34;100.00;101343.00;5071156;28;20764;-82
2021/05/27 08:24:57;;;;;;;11.47;4.60;;;;;;;23.42;100.00;101343.81;5070884;28;20911;-82
2021/05/27 08:27:24;;;;;;;10.37;4.27;;;;;;;23.44;100.00;101341.81;5071281;28;20157;-84
2021/05/27 08:29:49;;;;;;;11.73;4.70;;;;;;;23.41;100.00;101341.31;5071078;28;20275;-83
2021/05/27 08:32:15;;;;;;;14.00;11.00;;;;;;;23.37;100.00;101343.50;5069762;28;20803;-81
2021/05/27 08:34:40;;;;;;;4.80;3.60;;;;;;;23.30;100.00;101339.84;5071030;28;20183;-81
2021/05/27 08:37:07;;;;;;;6.77;3.73;;;;;;;23.43;100.00;101339.31;5070937;28;20165;-82
2021/05/27 08:39:33;;;;;;;4.23;3.33;;;;;;;23.53;100.00;101335.41;5070889;28;20219;-83
2021/05/27 08:42:00;;;;;;;10.33;4.30;;;;;;;23.70;100.00;101346.13;5070891;28;20908;-82
2021/05/27 08:44:26;;;;;;;8.30;4.13;;;;;;;23.64;100.00;101344.94;5071570;28;20454;-84
2021/05/27 08:46:52;;;;;;;6.33;4.60;;;;;;;23.61;100.00;101344.47;5071885;28;20543;-85
2021/05/27 08:49:20;;;;;;;9.67;5.03;;;;;;;23.84;100.00;101348.06;5071335;28;20530;-83
2021/05/27 08:52:03;;;;;;;5.90;3.90;;;;;;;23.95;100.00;101339.63;5069972;28;20622;-82
2021/05/27 08:54:30;;;;;;;5.63;3.40;;;;;;;24.09;100.00;101344.25;5071250;28;20935;-82
2021/05/27 08:56:56;;;;;;;11.10;5.57;;;;;;;24.14;100.00;101340.22;5070698;28;20402;-82
2021/05/27 08:59:22;;;;;;;6.30;3.80;;;;;;;24.14;100.00;101346.44;5069882;28;20437;-85
2021/05/27 09:02:01;;;;;;;6.10;4.20;;;;;;;24.23;100.00;101337.31;5070357;28;20411;-82
2021/05/27 09:04:26;;;;;;;7.17;3.80;;;;;;;24.18;100.00;101336.16;5073238;28;20161;-84
2021/05/27 09:06:52;;;;;;;6.30;3.70;;;;;;;24.15;100.00;101328.47;5073558;28;20514;-83
2021/05/27 09:09:17;;;;;;;4.00;2.73;;;;;;;24.04;100.00;101333.22;5075365;28;20191;-81
2021/05/27 09:11:47;;;;;;;9.17;4.10;;;;;;;24.27;100.00;101327.06;5073371;28;20255;-83
2021/05/27 09:14:12;;;;;;;4.60;2.80;;;;;;;24.42;100.00;101325.31;5075548;28;20631;-84
2021/05/27 09:16:55;;;;;;;6.27;3.57;;;;;;;24.40;100.00;101329.16;5074760;28;20393;-84
2021/05/27 09:19:21;;;;;;;8.20;3.33;;;;;;;24.74;100.00;101326.91;5073189;28;20161;-84
2021/05/27 09:21:47;;;;;;;10.50;5.17;;;;;;;25.04;100.00;101332.38;5073952;28;20448;-84
2021/05/27 09:24:12;;;;;;;6.70;4.70;;;;;;;25.29;100.00;101343.72;5073490;28;20180;-83
2021/05/27 09:26:52;;;;;;;8.13;3.77;;;;;;;25.02;100.00;101343.31;5074471;28;20226;-82
2021/05/27 09:29:18;;;;;;;6.40;4.50;;;;;;;25.13;100.00;101342.03;5074222;28;20196;-83
2021/05/27 09:32:08;;;;;;;8.47;3.53;;;;;;;25.42;100.00;101333.16;5073940;28;20395;-84
2021/05/27 09:34:46;;;;;;;4.00;3.53;;;;;;;25.55;100.00;101337.91;5074254;28;20486;-81
2021/05/27 09:37:22;;;;;;;6.10;4.63;;;;;;;25.51;100.00;101340.13;5074116;28;20459;-82
2021/05/27 09:39:50;;;;;;;5.30;3.40;;;;;;;25.49;100.00;101336.78;5074685;28;21003;-84
2021/05/27 09:42:16;;;;;;;6.93;3.33;;;;;;;25.58;100.00;101332.97;5074379;28;20470;-83
2021/05/27 09:44:41;;;;;;;5.33;3.00;;;;;;;25.61;100.00;101331.75;5071520;28;20908;-84
2021/05/27 09:47:07;;;;;;;4.07;2.73;;;;;;;25.41;100.00;101332.34;5073815;28;20157;-85
2021/05/27 09:49:34;;;;;;;3.90;2.67;;;;;;;25.57;100.00;101333.19;5074039;28;20180;-84
2021/05/27 09:52:15;;;;;;;4.00;3.27;;;;;;;25.68;100.00;101336.22;5071617;28;20430;-84
2021/05/27 09:54:55;;;;;;;6.10;3.23;;;;;;;25.72;100.00;101332.16;5073145;28;20920;-82
2021/05/27 09:57:26;;;;;;;5.23;3.63;;;;;;;25.73;100.00;101331.16;5073996;28;20984;-82
2021/05/27 09:59:53;;;;;;;4.70;3.27;;;;;;;25.79;100.00;101334.94;5072863;28;20738;-83
2021/05/27 10:02:19;;;;;;;6.90;5.10;;;;;;;25.94;100.00;101321.47;5073709;28;20780;-84
2021/05/27 10:05:13;;;;;;;5.30;2.80;;;;;;;26.51;100.00;101320.66;5073901;28;20402;-82
2021/05/27 10:07:43;;;;;;;67.83;6.53;;;;;;;26.87;100.00;101315.16;5071705;28;20476;-83
2021/05/27 10:10:13;;;;;;;4.13;2.83;;;;;;;27.06;100.00;101311.81;5073105;28;20902;-81
2021/05/27 10:12:46;;;;;;;7.33;3.03;;;;;;;27.22;100.00;101305.28;5072328;28;20813;-83
2021/05/27 10:15:20;;;;;;;7.47;3.10;;;;;;;27.38;97.29;101304.97;5071977;28;20916;-80
2021/05/27 10:17:46;;;;;;;5.80;3.60;;;;;;;27.28;95.53;101311.72;5071834;28;20418;-79
2021/05/27 10:20:18;;;;;;;4.40;2.50;;;;;;;27.10;97.50;101312.25;5071386;28;20399;-82
2021/05/27 10:22:44;;;;;;;21.70;4.87;;;;;;;27.12;99.92;101315.56;5063902;28;20478;-80
2021/05/27 10:25:13;;;;;;;5.03;3.10;;;;;;;27.01;97.41;101322.31;5055457;28;20431;-81
2021/05/27 10:27:40;;;;;;;4.90;2.50;;;;;;;26.95;100.00;101331.19;5061169;28;20416;-81
2021/05/27 10:30:08;;;;;;;6.40;2.90;;;;;;;27.03;99.55;101335.63;5067077;28;20465;-80
2021/05/27 10:32:40;;;;;;;6.90;3.00;;;;;;;27.16;100.00;101332.22;5054073;28;20411;-79
2021/05/27 10:35:06;;;;;;;8.17;6.87;;;;;;;27.34;100.00;101321.75;5058897;28;20403;-81
2021/05/27 10:37:36;;;;;;;8.93;3.60;;;;;;;27.50;100.00;101329.53;5071847;28;20462;-81
2021/05/27 10:40:21;;;;;;;4.23;2.53;;;;;;;27.42;100.00;101326.16;5072829;28;20866;-81
2021/05/27 10:42:56;;;;;;;5.60;3.30;;;;;;;27.27;100.00;101324.41;5073234;28;20789;-81
2021/05/27 10:45:29;;;;;;;7.97;5.37;;;;;;;27.08;100.00;101322.41;5072876;28;20399;-80
2021/05/27 10:48:13;;;;;;;6.70;5.40;;;;;;;26.73;100.00;101324.16;5060516;28;20916;-80
2021/05/27 10:51:08;;;;;;;8.53;4.03;;;;;;;26.59;100.00;101323.22;5057721;28;20545;-80
2021/05/27 10:53:44;;;;;;;5.77;3.23;;;;;;;26.42;100.00;101319.94;5072980;28;20383;-81
2021/05/27 10:56:17;;;;;;;9.00;4.50;;;;;;;26.19;100.00;101322.78;5072740;28;20394;-83
2021/05/27 10:58:46;;;;;;;6.43;3.37;;;;;;;26.02;100.00;101326.75;5072736;28;20422;-83
2021/05/27 11:01:30;;;;;;;6.77;3.90;;;;;;;25.96;100.00;101322.94;5069628;28;20472;-80
2021/05/27 11:04:03;;;;;;;8.80;4.27;;;;;;;26.17;100.00;101327.53;5061868;28;20406;-82
2021/05/27 11:06:40;;;;;;;6.27;4.03;;;;;;;26.44;100.00;101323.28;5072626;28;20502;-84
2021/05/27 11:11:43;;;;;;;6.53;3.87;;;;;;;26.42;100.00;101317.25;5052712;28;20742;-84
2021/05/27 11:14:22;;;;;;;10.70;5.03;;;;;;;26.19;100.00;101324.66;5055994;28;20415;-81
2021/05/27 11:17:34;;;;;;;7.50;5.10;;;;;;;25.77;100.00;101330.75;5053344;28;20937;-87
2021/05/27 11:20:27;;;;;;;7.93;3.73;;;;;;;25.72;100.00;101334.88;5055679;28;20403;-87
2021/05/27 11:23:05;;;;;;;7.10;3.80;;;;;;;25.57;100.00;101334.00;5061229;28;20882;-85
2021/05/27 11:25:34;;;;;;;8.70;3.27;;;;;;;25.42;100.00;101333.16;5066673;28;20768;-77